createdAt,value
2022-07-30T00:02:06.296Z,3.30
2022-07-30T00:04:33.984Z,4.47
2022-07-30T00:07:04.165Z,4.95
2022-07-30T00:09:39.261Z,3.70
2022-07-30T00:12:07.783Z,9.30
2022-07-30T00:14:35.664Z,7.15
2022-07-30T00:17:10.322Z,3.45
2022-07-30T00:19:37.881Z,4.43
2022-07-30T00:22:05.562Z,3.90
2022-07-30T00:24:39.283Z,5.18
2022-07-30T00:27:06.718Z,4.43
2022-07-30T00:29:34.929Z,4.45
2022-07-30T00:32:11.277Z,4.50
2022-07-30T00:34:38.760Z,5.85
2022-07-30T00:37:06.222Z,3.67
2022-07-30T00:39:40.296Z,4.60
2022-07-30T00:42:08.333Z,5.95
2022-07-30T00:44:35.905Z,3.78
2022-07-30T00:47:15.293Z,5.63
2022-07-30T00:49:44.424Z,5.53
2022-07-30T00:52:12.120Z,4.53
2022-07-30T00:54:46.288Z,4.10
2022-07-30T00:57:13.887Z,4.35
2022-07-30T00:59:41.408Z,7.55
2022-07-30T01:02:15.326Z,5.00
2022-07-30T01:04:43.082Z,4.90
2022-07-30T01:07:11.003Z,6.28
2022-07-30T01:09:46.277Z,6.90
2022-07-30T01:12:21.912Z,10.55
2022-07-30T01:14:56.361Z,4.50
2022-07-30T01:17:37.436Z,5.25
2022-07-30T01:20:16.271Z,5.72
2022-07-30T01:23:09.130Z,8.00
2022-07-30T01:26:03.285Z,6.45
2022-07-30T01:28:41.307Z,6.38
2022-07-30T01:31:17.426Z,11.43
2022-07-30T01:33:47.634Z,5.18
2022-07-30T01:36:25.321Z,5.05
2022-07-30T01:38:53.392Z,5.93
2022-07-30T01:41:21.297Z,5.40
2022-07-30T01:43:55.321Z,6.03
2022-07-30T01:46:24.976Z,5.03
2022-07-30T01:48:53.804Z,8.18
2022-07-30T01:51:37.417Z,6.70
2022-07-30T01:54:09.588Z,4.85
2022-07-30T01:56:45.334Z,5.32
2022-07-30T01:59:14.627Z,5.10
2022-07-30T02:01:42.346Z,4.65
2022-07-30T02:04:17.331Z,6.05
2022-07-30T02:06:56.438Z,5.70
2022-07-30T02:09:45.597Z,6.40
2022-07-30T02:12:28.761Z,6.93
2022-07-30T02:15:34.304Z,6.18
2022-07-30T02:18:13.532Z,6.57
2022-07-30T02:20:53.289Z,4.35
2022-07-30T02:23:23.091Z,5.85
2022-07-30T02:25:51.776Z,6.30
2022-07-30T02:28:28.353Z,10.50
2022-07-30T02:30:59.056Z,9.88
2022-07-30T02:33:48.502Z,11.85
2022-07-30T02:36:18.685Z,7.32
2022-07-30T02:38:57.292Z,8.32
2022-07-30T02:41:27.782Z,6.75
2022-07-30T02:43:57.142Z,10.93
2022-07-30T02:46:32.473Z,6.13
2022-07-30T02:49:01.243Z,6.10
2022-07-30T02:51:29.705Z,7.70
2022-07-30T02:54:05.338Z,6.68
2022-07-30T02:56:33.950Z,8.00
2022-07-30T02:59:04.624Z,10.05
2022-07-30T03:01:40.381Z,5.47
2022-07-30T03:04:08.890Z,6.75
2022-07-30T03:06:37.111Z,8.60
2022-07-30T03:09:12.381Z,13.00
2022-07-30T03:11:45.783Z,7.85
2022-07-30T03:14:20.376Z,9.55
2022-07-30T03:16:59.644Z,7.93
2022-07-30T03:19:43.370Z,6.65
2022-07-30T03:22:12.264Z,6.78
2022-07-30T03:24:40.963Z,6.68
2022-07-30T03:27:18.348Z,8.23
2022-07-30T03:29:47.199Z,7.75
2022-07-30T03:32:15.174Z,7.72
2022-07-30T03:34:50.332Z,6.82
2022-07-30T03:37:18.103Z,6.95
2022-07-30T03:39:46.434Z,6.15
2022-07-30T03:42:20.415Z,7.00
2022-07-30T03:44:48.496Z,6.30
2022-07-30T03:47:17.555Z,11.32
2022-07-30T03:49:51.321Z,6.15
2022-07-30T03:52:20.099Z,8.10
2022-07-30T03:54:48.597Z,9.15
2022-07-30T03:57:22.427Z,9.30
2022-07-30T03:59:51.795Z,6.70
2022-07-30T04:02:19.534Z,9.23
2022-07-30T04:04:53.341Z,9.20
2022-07-30T04:07:21.175Z,8.70
2022-07-30T04:09:48.674Z,7.90
2022-07-30T04:12:22.375Z,8.07
2022-07-30T04:14:49.882Z,9.48
2022-07-30T04:17:37.428Z,7.00
2022-07-30T04:20:17.950Z,7.25
2022-07-30T04:22:53.367Z,7.88
2022-07-30T04:25:24.587Z,9.07
2022-07-30T04:27:58.210Z,6.90
2022-07-30T04:30:37.346Z,7.40
2022-07-30T04:33:05.856Z,5.47
2022-07-30T04:35:51.641Z,6.38
2022-07-30T04:38:27.373Z,8.35
2022-07-30T04:40:54.896Z,6.68
2022-07-30T04:43:22.650Z,7.47
2022-07-30T04:45:56.406Z,9.05
2022-07-30T04:48:27.135Z,10.20
2022-07-30T04:51:04.441Z,7.50
2022-07-30T04:53:32.759Z,7.25
2022-07-30T04:56:01.464Z,7.22
2022-07-30T04:58:36.425Z,6.90
2022-07-30T05:03:50.346Z,9.43
2022-07-30T05:06:19.425Z,8.30
2022-07-30T05:08:47.168Z,6.68
2022-07-30T05:11:21.388Z,8.57
2022-07-30T05:13:50.124Z,6.65
2022-07-30T05:16:17.903Z,7.78
2022-07-30T05:18:52.457Z,6.75
2022-07-30T05:21:20.095Z,5.32
2022-07-30T05:23:50.161Z,5.55
2022-07-30T05:26:29.398Z,7.40
2022-07-30T05:28:57.340Z,5.85
2022-07-30T05:31:25.924Z,8.98
2022-07-30T05:34:03.898Z,5.50
2022-07-30T05:36:31.940Z,9.65
2022-07-30T05:38:59.741Z,6.68
2022-07-30T05:41:34.367Z,5.30
2022-07-30T05:44:02.147Z,7.55
2022-07-30T05:46:31.351Z,7.53
2022-07-30T05:49:05.408Z,7.80
2022-07-30T05:51:32.980Z,6.10
2022-07-30T05:54:00.642Z,8.57
2022-07-30T05:56:34.396Z,10.05
2022-07-30T05:59:02.258Z,5.68
2022-07-30T06:01:43.401Z,8.05
2022-07-30T06:04:17.603Z,14.27
2022-07-30T06:06:51.429Z,7.18
2022-07-30T06:09:18.937Z,11.52
2022-07-30T06:12:10.439Z,5.57
2022-07-30T06:14:37.943Z,10.27
2022-07-30T06:17:05.493Z,9.30
2022-07-30T06:19:39.372Z,7.47
2022-07-30T06:22:07.298Z,6.80
2022-07-30T06:24:35.231Z,11.00
2022-07-30T06:27:16.402Z,5.10
2022-07-30T06:29:44.111Z,6.03
2022-07-30T06:32:11.628Z,6.95
2022-07-30T06:34:45.426Z,5.53
2022-07-30T06:37:13.062Z,5.53
2022-07-30T06:39:58.032Z,5.55
2022-07-30T06:42:32.390Z,4.90
2022-07-30T06:44:59.954Z,6.00
2022-07-30T06:47:29.399Z,5.63
2022-07-30T06:50:04.407Z,5.93
2022-07-30T06:52:31.960Z,5.28
2022-07-30T06:54:59.472Z,5.82
2022-07-30T06:57:36.472Z,7.55
2022-07-30T07:00:08.651Z,6.35
2022-07-30T07:02:52.416Z,4.25
2022-07-30T07:05:29.108Z,7.38
2022-07-30T07:08:03.486Z,6.43
2022-07-30T07:10:31.138Z,10.10
2022-07-30T07:13:00.699Z,4.38
2022-07-30T07:15:37.265Z,5.72
2022-07-30T07:18:06.550Z,3.92
2022-07-30T07:20:43.405Z,5.07
2022-07-30T07:23:12.419Z,8.15
2022-07-30T07:25:41.105Z,6.03
2022-07-30T07:28:15.463Z,6.35
2022-07-30T07:30:44.379Z,3.40
2022-07-30T07:33:12.645Z,17.17
2022-07-30T07:35:49.354Z,7.22
2022-07-30T07:38:21.074Z,10.63
2022-07-30T07:40:55.486Z,6.55
2022-07-30T07:43:25.278Z,4.80
2022-07-30T07:45:53.071Z,4.30
2022-07-30T07:48:27.499Z,6.25
2022-07-30T07:50:59.905Z,6.85
2022-07-30T07:53:34.804Z,4.97
2022-07-30T07:56:02.520Z,9.10
2022-07-30T07:58:31.778Z,2.95
2022-07-30T08:01:05.537Z,4.43
2022-07-30T08:03:39.554Z,6.93
2022-07-30T08:06:15.244Z,6.85
2022-07-30T08:08:42.950Z,7.25
2022-07-30T08:11:10.635Z,4.28
2022-07-30T08:13:48.361Z,6.20
2022-07-30T08:16:20.718Z,3.72
2022-07-30T08:18:55.446Z,5.60
2022-07-30T08:21:22.941Z,6.25
2022-07-30T08:23:50.772Z,3.92
2022-07-30T08:26:24.446Z,6.70
2022-07-30T08:28:54.410Z,4.00
2022-07-30T08:31:22.199Z,4.68
2022-07-30T08:33:56.455Z,4.18
2022-07-30T08:36:26.018Z,5.60
2022-07-30T08:38:53.636Z,5.15
2022-07-30T08:41:28.454Z,4.80
2022-07-30T08:43:57.353Z,5.72
2022-07-30T08:46:27.753Z,6.47
2022-07-30T08:49:09.207Z,5.53
2022-07-30T08:51:40.115Z,4.43
2022-07-30T08:54:14.448Z,6.35
2022-07-30T08:56:42.180Z,4.30
2022-07-30T08:59:10.263Z,5.70
2022-07-30T09:01:45.509Z,4.57
2022-07-30T09:04:19.701Z,8.40
2022-07-30T09:06:53.571Z,4.60
2022-07-30T09:09:21.534Z,4.32
2022-07-30T09:11:49.159Z,3.42
2022-07-30T09:14:23.452Z,9.65
2022-07-30T09:16:59.131Z,7.03
2022-07-30T09:19:33.452Z,6.05
2022-07-30T09:22:02.860Z,6.78
2022-07-30T09:24:50.578Z,5.13
2022-07-30T09:27:18.434Z,8.70
2022-07-30T09:30:03.428Z,3.15
2022-07-30T09:32:49.191Z,7.82
2022-07-30T09:35:24.432Z,8.43
2022-07-30T09:38:06.022Z,4.10
2022-07-30T09:40:42.939Z,8.05
2022-07-30T09:43:12.069Z,4.80
2022-07-30T09:46:02.492Z,3.08
2022-07-30T09:48:30.022Z,5.32
2022-07-30T09:50:58.024Z,4.65
2022-07-30T09:53:32.442Z,9.05
2022-07-30T09:56:00.520Z,7.28
2022-07-30T09:58:52.509Z,5.55
2022-07-30T10:01:20.313Z,4.57
2022-07-30T10:04:01.489Z,6.72
2022-07-30T10:06:38.236Z,4.88
2022-07-30T10:09:16.940Z,4.95
2022-07-30T10:11:44.824Z,5.60
2022-07-30T10:14:12.997Z,5.05
2022-07-30T10:16:48.479Z,3.83
2022-07-30T10:19:18.232Z,4.22
2022-07-30T10:21:58.531Z,10.85
2022-07-30T10:24:27.850Z,5.43
2022-07-30T10:26:56.339Z,6.18
2022-07-30T10:29:33.433Z,5.40
2022-07-30T10:32:02.172Z,5.03
2022-07-30T10:34:34.037Z,5.03
2022-07-30T10:37:19.508Z,5.47
2022-07-30T10:39:56.902Z,3.22
2022-07-30T10:42:49.563Z,3.85
2022-07-30T10:45:27.424Z,4.70
2022-07-30T10:48:03.510Z,6.18
2022-07-30T10:50:33.295Z,6.00
2022-07-30T10:53:01.857Z,4.35
2022-07-30T10:55:39.266Z,7.13
2022-07-30T10:58:12.260Z,6.63
2022-07-30T11:01:01.482Z,3.55
2022-07-30T11:03:49.756Z,3.90
2022-07-30T11:06:24.436Z,4.13
2022-07-30T11:08:57.257Z,4.00
2022-07-30T11:12:02.254Z,8.88
2022-07-30T11:14:20.635Z,7.93
2022-07-30T11:16:58.508Z,2.63
2022-07-30T11:19:53.145Z,3.33
2022-07-30T11:22:33.053Z,4.25
2022-07-30T11:25:04.499Z,3.80
2022-07-30T11:27:49.488Z,3.92
2022-07-30T11:30:17.719Z,5.63
2022-07-30T11:32:56.533Z,3.83
2022-07-30T11:35:26.446Z,3.40
2022-07-30T11:38:15.545Z,4.47
2022-07-30T11:40:46.631Z,4.57
2022-07-30T11:43:35.011Z,4.95
2022-07-30T11:46:34.196Z,2.83
2022-07-30T11:49:14.529Z,3.13
2022-07-30T11:51:45.549Z,2.47
2022-07-30T11:54:14.092Z,5.75
2022-07-30T11:57:04.057Z,4.35
2022-07-30T11:59:32.087Z,2.53
2022-07-30T12:02:19.517Z,4.78
2022-07-30T12:04:47.236Z,4.05
2022-07-30T12:07:28.508Z,3.55
2022-07-30T12:10:16.482Z,3.13
2022-07-30T12:12:51.524Z,2.83
2022-07-30T12:15:31.816Z,3.97
2022-07-30T12:21:00.747Z,2.97
2022-07-30T12:23:35.525Z,3.45
2022-07-30T12:26:03.572Z,2.75
2022-07-30T12:28:33.416Z,3.10
2022-07-30T12:31:11.556Z,3.95
2022-07-30T12:33:42.188Z,4.95
2022-07-30T12:36:11.015Z,7.03
2022-07-30T12:38:54.616Z,3.85
2022-07-30T12:41:22.745Z,6.57
2022-07-30T12:44:06.588Z,4.20
2022-07-30T12:46:41.517Z,4.95
2022-07-30T12:49:22.464Z,6.50
2022-07-30T12:51:59.773Z,3.92
2022-07-30T12:54:35.564Z,2.55
2022-07-30T12:57:05.557Z,4.70
2022-07-30T12:59:35.482Z,4.60
2022-07-30T13:02:10.790Z,6.68
2022-07-30T13:04:58.995Z,3.25
2022-07-30T13:08:00.535Z,4.30
2022-07-30T13:10:31.070Z,5.97
2022-07-30T13:12:59.629Z,2.53
2022-07-30T13:15:33.561Z,4.07
2022-07-30T13:18:01.182Z,2.33
2022-07-30T13:20:28.724Z,2.35
2022-07-30T13:23:04.566Z,3.00
2022-07-30T13:25:40.494Z,3.95
2022-07-30T13:28:14.531Z,3.63
2022-07-30T13:30:42.170Z,4.38
2022-07-30T13:33:09.822Z,4.10
2022-07-30T13:35:44.593Z,3.80
2022-07-30T13:38:13.721Z,5.10
2022-07-30T13:40:41.678Z,2.53
2022-07-30T13:43:15.584Z,5.03
2022-07-30T13:45:43.308Z,5.75
2022-07-30T13:48:11.254Z,3.15
2022-07-30T13:50:45.659Z,2.72
2022-07-30T13:53:14.032Z,2.90
2022-07-30T13:55:42.830Z,2.38
2022-07-30T13:58:17.610Z,1.67
2022-07-30T14:00:45.550Z,3.63
2022-07-30T14:03:33.558Z,2.83
2022-07-30T14:06:10.828Z,1.60
2022-07-30T14:08:45.575Z,3.83
2022-07-30T14:11:13.232Z,2.00
2022-07-30T14:13:40.904Z,2.78
2022-07-30T14:16:35.727Z,3.08
2022-07-30T14:19:03.347Z,3.42
2022-07-30T14:21:37.577Z,3.22
2022-07-30T14:24:07.927Z,5.32
2022-07-30T14:26:36.706Z,2.53
2022-07-30T14:29:12.607Z,1.95
2022-07-30T14:31:40.729Z,2.45
2022-07-30T14:34:08.340Z,2.25
2022-07-30T14:36:43.586Z,3.90
2022-07-30T14:39:11.091Z,1.75
2022-07-30T14:41:39.070Z,1.40
2022-07-30T14:44:13.589Z,3.55
2022-07-30T14:46:52.294Z,2.05
2022-07-30T14:49:27.572Z,2.33
2022-07-30T14:51:55.854Z,2.85
2022-07-30T14:54:23.518Z,1.63
2022-07-30T14:56:58.546Z,4.50
2022-07-30T14:59:29.199Z,3.20
2022-07-30T15:02:27.557Z,1.77
2022-07-30T15:05:01.885Z,1.92
2022-07-30T15:07:36.570Z,2.83
2022-07-30T15:10:07.469Z,4.03
2022-07-30T15:12:35.093Z,3.17
2022-07-30T15:15:12.587Z,2.22
2022-07-30T15:17:42.141Z,2.28
2022-07-30T15:20:10.811Z,2.25
2022-07-30T15:22:45.580Z,3.03
2022-07-30T15:25:13.256Z,2.30
2022-07-30T15:27:40.816Z,2.08
2022-07-30T15:30:15.615Z,2.53
2022-07-30T15:32:43.331Z,5.07
2022-07-30T15:35:13.757Z,3.35
2022-07-30T15:37:48.583Z,2.35
2022-07-30T15:40:16.109Z,1.45
2022-07-30T15:42:44.285Z,1.60
2022-07-30T15:45:18.906Z,1.40
2022-07-30T15:47:49.733Z,1.30
2022-07-30T15:50:17.935Z,1.30
2022-07-30T15:52:51.575Z,2.58
2022-07-30T15:55:19.226Z,2.22
2022-07-30T15:57:48.388Z,3.78
2022-07-30T16:00:22.636Z,6.00
2022-07-30T16:02:56.660Z,2.08
2022-07-30T16:05:51.396Z,1.33
2022-07-30T16:08:20.213Z,1.63
2022-07-30T16:10:55.627Z,2.60
2022-07-30T16:13:23.151Z,1.67
2022-07-30T16:15:51.014Z,1.98
2022-07-30T16:18:24.615Z,1.33
2022-07-30T16:20:52.149Z,5.15
2022-07-30T16:23:21.796Z,1.73
2022-07-30T16:25:55.642Z,1.52
2022-07-30T16:28:23.771Z,1.65
2022-07-30T16:30:51.805Z,1.25
2022-07-30T16:33:26.587Z,2.35
2022-07-30T16:35:54.139Z,1.27
2022-07-30T16:38:23.353Z,2.63
2022-07-30T16:40:57.643Z,2.80
2022-07-30T16:43:25.137Z,1.08
2022-07-30T16:45:52.765Z,2.35
2022-07-30T16:48:26.634Z,2.42
2022-07-30T16:50:54.775Z,1.02
2022-07-30T16:53:22.358Z,3.42
2022-07-30T16:55:56.628Z,2.20
2022-07-30T16:58:31.075Z,4.68
2022-07-30T17:01:05.802Z,2.47
2022-07-30T17:03:39.796Z,3.05
2022-07-30T17:06:20.589Z,2.35
2022-07-30T17:08:55.041Z,1.23
2022-07-30T17:11:47.369Z,1.67
2022-07-30T17:14:16.137Z,4.47
2022-07-30T17:16:50.623Z,1.50
2022-07-30T17:19:18.269Z,2.95
2022-07-30T17:21:46.017Z,1.55
2022-07-30T17:24:20.615Z,2.15
2022-07-30T17:26:48.248Z,1.60
2022-07-30T17:29:16.817Z,1.17
2022-07-30T17:31:51.617Z,2.63
2022-07-30T17:34:20.412Z,5.22
2022-07-30T17:36:51.842Z,3.85
2022-07-30T17:40:19.801Z,2.22
2022-07-30T17:42:16.200Z,1.45
2022-07-30T17:44:50.724Z,4.78
2022-07-30T17:47:18.234Z,1.40
2022-07-30T17:49:45.785Z,1.30
2022-07-30T17:52:23.340Z,3.55
2022-07-30T17:54:53.606Z,2.35
2022-07-30T17:57:27.610Z,1.52
2022-07-30T17:59:55.192Z,2.05
2022-07-30T18:02:28.735Z,1.83
2022-07-30T18:05:03.642Z,1.30
2022-07-30T18:07:31.595Z,4.18
2022-07-30T18:09:59.329Z,2.05
2022-07-30T18:12:33.672Z,4.28
2022-07-30T18:15:03.384Z,2.92
2022-07-30T18:17:30.958Z,3.45
2022-07-30T18:20:04.662Z,1.30
2022-07-30T18:22:32.337Z,2.72
2022-07-30T18:25:00.764Z,1.38
2022-07-30T18:27:34.642Z,1.92
2022-07-30T18:30:04.963Z,3.15
2022-07-30T18:32:33.228Z,3.78
2022-07-30T18:35:12.052Z,1.55
2022-07-30T18:37:42.224Z,1.30
2022-07-30T18:40:23.392Z,3.17
2022-07-30T18:42:52.104Z,1.55
2022-07-30T18:45:26.710Z,4.03
2022-07-30T18:47:55.363Z,2.10
2022-07-30T18:50:24.051Z,1.58
2022-07-30T18:52:58.790Z,2.03
2022-07-30T18:55:26.349Z,5.05
2022-07-30T18:57:53.887Z,1.48
2022-07-30T19:00:31.177Z,2.08
2022-07-30T19:03:03.690Z,1.83
2022-07-30T19:05:44.746Z,3.70
2022-07-30T19:08:12.532Z,1.80
2022-07-30T19:10:40.193Z,1.25
2022-07-30T19:13:14.752Z,1.23
2022-07-30T19:15:42.615Z,2.05
2022-07-30T19:18:10.890Z,1.48
2022-07-30T19:20:45.730Z,1.50
2022-07-30T19:23:15.400Z,1.80
2022-07-30T19:25:43.310Z,2.17
2022-07-30T19:28:19.741Z,1.58
2022-07-30T19:30:47.394Z,1.30
2022-07-30T19:33:15.969Z,1.42
2022-07-30T19:35:50.734Z,2.05
2022-07-30T19:38:23.837Z,2.03
2022-07-30T19:40:59.228Z,1.88
2022-07-30T19:46:21.689Z,1.65
2022-07-30T19:48:51.869Z,2.25
2022-07-30T19:51:25.104Z,2.00
2022-07-30T19:54:00.087Z,1.90
2022-07-30T19:56:30.069Z,2.00
2022-07-30T19:58:58.272Z,2.83
2022-07-30T20:01:41.162Z,2.53
2022-07-30T20:04:29.975Z,1.77
2022-07-30T20:07:04.878Z,1.73
2022-07-30T20:09:32.811Z,2.13
2022-07-30T20:12:02.562Z,1.27
2022-07-30T20:14:36.905Z,1.05
2022-07-30T20:17:11.163Z,1.88
2022-07-30T20:19:48.499Z,3.30
2022-07-30T20:22:16.537Z,2.97
2022-07-30T20:24:45.409Z,2.10
2022-07-30T20:27:37.383Z,2.75
2022-07-30T20:30:07.805Z,2.03
2022-07-30T20:32:46.940Z,1.52
2022-07-30T20:35:14.890Z,1.75
2022-07-30T20:37:55.401Z,2.38
2022-07-30T20:40:32.139Z,4.00
2022-07-30T20:43:01.853Z,2.60
2022-07-30T20:45:40.642Z,1.20
2022-07-30T20:48:17.130Z,3.47
2022-07-30T20:50:52.763Z,2.95
2022-07-30T20:53:33.418Z,1.42
2022-07-30T20:56:04.643Z,1.00
2022-07-30T20:58:39.033Z,2.60
2022-07-30T21:01:08.445Z,3.20
2022-07-30T21:03:57.064Z,1.65
2022-07-30T21:06:32.305Z,2.20
2022-07-30T21:09:09.119Z,4.90
2022-07-30T21:11:44.890Z,2.05
2022-07-30T21:14:27.056Z,1.67
2022-07-30T21:16:56.237Z,2.97
2022-07-30T21:19:37.147Z,5.05
2022-07-30T21:22:05.215Z,4.15
2022-07-30T21:24:34.824Z,1.58
2022-07-30T21:27:09.151Z,7.18
2022-07-30T21:29:40.923Z,1.20
2022-07-30T21:32:08.475Z,1.40
2022-07-30T21:34:43.209Z,1.52
2022-07-30T21:37:10.977Z,1.35
2022-07-30T21:39:50.515Z,1.58
2022-07-30T21:42:18.072Z,2.20
2022-07-30T21:45:00.070Z,2.40
2022-07-30T21:47:27.834Z,1.98
2022-07-30T21:49:55.783Z,1.52
2022-07-30T21:52:30.064Z,3.42
2022-07-30T21:54:58.039Z,1.27
2022-07-30T21:57:39.218Z,2.60
2022-07-30T22:00:15.520Z,2.28
2022-07-30T22:02:52.743Z,1.10
2022-07-30T22:05:42.061Z,1.98
2022-07-30T22:08:19.658Z,1.60
2022-07-30T22:10:48.754Z,2.22
2022-07-30T22:13:53.584Z,2.05
2022-07-30T22:16:28.136Z,1.63
2022-07-30T22:19:03.373Z,1.80
2022-07-30T22:21:30.838Z,2.50
2022-07-30T22:24:00.223Z,5.43
2022-07-30T22:26:36.040Z,7.43
2022-07-30T22:29:03.560Z,3.50
2022-07-30T22:31:39.692Z,2.95
2022-07-30T22:34:16.889Z,2.53
2022-07-30T22:36:45.671Z,1.52
2022-07-30T22:39:13.367Z,3.75
2022-07-30T22:41:47.050Z,2.83
2022-07-30T22:44:14.938Z,6.10
2022-07-30T22:46:43.703Z,5.53
2022-07-30T22:49:23.473Z,1.63
2022-07-30T22:52:02.835Z,3.40
2022-07-30T22:54:43.048Z,3.15
2022-07-30T22:57:10.568Z,1.52
2022-07-30T22:59:58.138Z,4.15
2022-07-30T23:02:33.061Z,2.92
2022-07-30T23:05:22.064Z,2.20
2022-07-30T23:07:58.059Z,4.68
2022-07-30T23:10:27.844Z,3.30
2022-07-30T23:12:16.478Z,2.17
2022-07-30T23:12:55.735Z,2.97
2022-07-30T23:15:30.097Z,3.60
2022-07-30T23:17:57.525Z,3.03
2022-07-30T23:20:27.773Z,2.35
2022-07-30T23:23:02.069Z,2.40
2022-07-30T23:25:38.564Z,3.38
2022-07-30T23:28:13.201Z,2.63
2022-07-30T23:30:40.652Z,3.50
2022-07-30T23:33:08.188Z,4.82
2022-07-30T23:35:42.096Z,3.97
2022-07-30T23:38:09.763Z,4.10
2022-07-30T23:40:37.232Z,3.13
2022-07-30T23:43:11.075Z,3.05
2022-07-30T23:45:38.639Z,4.28
2022-07-30T23:48:06.531Z,2.47
2022-07-30T23:50:41.091Z,3.58
2022-07-30T23:53:08.528Z,3.17
2022-07-30T23:55:38.167Z,2.90
2022-07-30T23:58:12.154Z,3.60
